sensor_id;sensor_type;location;lat;lon;timestamp;pressure;altitude;pressure_sealevel;temperature;humidity
20105;BME280;10212;42.714;23.310;2023-04-04T00:09:29;93769.56;;;6.15;100.00
20105;BME280;10212;42.714;23.310;2023-04-04T00:19:30;93772.72;;;6.24;100.00
20105;BME280;10212;42.714;23.310;2023-04-04T00:29:30;93763.97;;;6.25;100.00
20105;BME280;10212;42.714;23.310;2023-04-04T00:39:33;93742.69;;;6.17;100.00
20105;BME280;10212;42.714;23.310;2023-04-04T00:49:33;93723.34;;;6.19;100.00
20105;BME280;10212;42.714;23.310;2023-04-04T00:59:33;93709.91;;;6.36;100.00
20105;BME280;10212;42.714;23.310;2023-04-04T01:09:35;93726.16;;;6.50;100.00
20105;BME280;10212;42.714;23.310;2023-04-04T01:19:37;93732.13;;;6.50;100.00
20105;BME280;10212;42.714;23.310;2023-04-04T01:29:42;93743.31;;;6.44;100.00
20105;BME280;10212;42.714;23.310;2023-04-04T01:39:46;93736.03;;;6.60;100.00
20105;BME280;10212;42.714;23.310;2023-04-04T01:49:47;93722.09;;;6.61;100.00
20105;BME280;10212;42.714;23.310;2023-04-04T01:59:47;93698.31;;;6.45;100.00
20105;BME280;10212;42.714;23.310;2023-04-04T02:09:48;93695.78;;;6.38;100.00
20105;BME280;10212;42.714;23.310;2023-04-04T02:19:48;93700.16;;;6.38;100.00
20105;BME280;10212;42.714;23.310;2023-04-04T02:29:48;93686.47;;;6.31;100.00
20105;BME280;10212;42.714;23.310;2023-04-04T02:39:49;93680.69;;;6.29;100.00
20105;BME280;10212;42.714;23.310;2023-04-04T02:49:50;93692.06;;;6.27;100.00
20105;BME280;10212;42.714;23.310;2023-04-04T02:59:51;93696.00;;;6.30;100.00
20105;BME280;10212;42.714;23.310;2023-04-04T03:09:51;93701.50;;;6.41;100.00
20105;BME280;10212;42.714;23.310;2023-04-04T03:19:51;93709.81;;;6.49;100.00
20105;BME280;10212;42.714;23.310;2023-04-04T03:29:52;93705.53;;;6.62;100.00
20105;BME280;10212;42.714;23.310;2023-04-04T03:39:54;93697.22;;;6.53;100.00
20105;BME280;10212;42.714;23.310;2023-04-04T03:49:54;93713.09;;;6.63;100.00
20105;BME280;10212;42.714;23.310;2023-04-04T03:59:56;93713.63;;;6.72;100.00
20105;BME280;10212;42.714;23.310;2023-04-04T04:09:56;93713.63;;;6.72;100.00
20105;BME280;10212;42.714;23.310;2023-04-04T04:19:56;93700.94;;;6.90;100.00
20105;BME280;10212;42.714;23.310;2023-04-04T04:29:57;93721.50;;;6.84;100.00
20105;BME280;10212;42.714;23.310;2023-04-04T04:39:57;93734.91;;;6.74;100.00
20105;BME280;10212;42.714;23.310;2023-04-04T04:49:57;93751.19;;;6.56;100.00
20105;BME280;10212;42.714;23.310;2023-04-04T04:59:58;93756.75;;;6.60;100.00
20105;BME280;10212;42.714;23.310;2023-04-04T05:09:58;93769.84;;;6.72;100.00
20105;BME280;10212;42.714;23.310;2023-04-04T05:19:58;93780.59;;;6.94;100.00
20105;BME280;10212;42.714;23.310;2023-04-04T05:29:58;93789.28;;;7.07;100.00
20105;BME280;10212;42.714;23.310;2023-04-04T05:39:59;93787.88;;;7.48;100.00
20105;BME280;10212;42.714;23.310;2023-04-04T05:50:00;93796.97;;;7.95;100.00
20105;BME280;10212;42.714;23.310;2023-04-04T06:00:00;93793.38;;;8.58;100.00
20105;BME280;10212;42.714;23.310;2023-04-04T06:10:01;93794.31;;;8.76;100.00
20105;BME280;10212;42.714;23.310;2023-04-04T06:20:01;93809.13;;;8.44;100.00
20105;BME280;10212;42.714;23.310;2023-04-04T06:30:04;93831.97;;;6.79;100.00
20105;BME280;10212;42.714;23.310;2023-04-04T06:40:05;93872.25;;;5.42;100.00
20105;BME280;10212;42.714;23.310;2023-04-04T06:50:06;93886.56;;;4.97;100.00
20105;BME280;10212;42.714;23.310;2023-04-04T07:00:07;93906.31;;;4.42;99.38
20105;BME280;10212;42.714;23.310;2023-04-04T07:10:08;93947.56;;;4.29;99.21
20105;BME280;10212;42.714;23.310;2023-04-04T07:20:08;93960.22;;;3.81;97.91
20105;BME280;10212;42.714;23.310;2023-04-04T07:30:09;93974.97;;;3.66;97.73
20105;BME280;10212;42.714;23.310;2023-04-04T07:40:10;94003.53;;;3.64;97.35
20105;BME280;10212;42.714;23.310;2023-04-04T07:50:11;94004.56;;;3.98;95.22
20105;BME280;10212;42.714;23.310;2023-04-04T08:00:12;94006.00;;;3.79;93.64
20105;BME280;10212;42.714;23.310;2023-04-04T08:10:13;94031.69;;;3.66;93.42
20105;BME280;10212;42.714;23.310;2023-04-04T08:20:16;94044.16;;;3.40;91.61
20105;BME280;10212;42.714;23.310;2023-04-04T08:30:17;94062.53;;;3.15;91.27
20105;BME280;10212;42.714;23.310;2023-04-04T08:40:21;94077.41;;;3.13;90.69
20105;BME280;10212;42.714;23.310;2023-04-04T08:50:21;94076.75;;;3.48;88.74
20105;BME280;10212;42.714;23.310;2023-04-04T09:00:22;94087.50;;;3.15;88.75
20105;BME280;10212;42.714;23.310;2023-04-04T09:10:22;94103.31;;;3.11;88.52
20105;BME280;10212;42.714;23.310;2023-04-04T09:20:39;94108.00;;;3.23;88.45
20105;BME280;10212;42.714;23.310;2023-04-04T09:30:40;94113.28;;;3.52;87.01
20105;BME280;10212;42.714;23.310;2023-04-04T09:40:41;94118.19;;;3.46;87.03
20105;BME280;10212;42.714;23.310;2023-04-04T09:50:45;94119.47;;;3.79;84.56
20105;BME280;10212;42.714;23.310;2023-04-04T10:00:46;94129.78;;;3.79;85.16
20105;BME280;10212;42.714;23.310;2023-04-04T10:10:50;94120.75;;;3.46;85.06
20105;BME280;10212;42.714;23.310;2023-04-04T10:20:52;94144.28;;;3.43;85.21
20105;BME280;10212;42.714;23.310;2023-04-04T10:31:08;94167.63;;;3.20;85.93
20105;BME280;10212;42.714;23.310;2023-04-04T10:41:12;94170.00;;;3.36;86.00
20105;BME280;10212;42.714;23.310;2023-04-04T10:51:13;94165.84;;;3.57;85.70
20105;BME280;10212;42.714;23.310;2023-04-04T11:01:14;94181.88;;;3.53;86.96
20105;BME280;10212;42.714;23.310;2023-04-04T11:11:20;94192.13;;;3.46;86.34
20105;BME280;10212;42.714;23.310;2023-04-04T11:21:21;94198.41;;;3.58;86.45
20105;BME280;10212;42.714;23.310;2023-04-04T11:31:27;94205.22;;;3.14;84.70
20105;BME280;10212;42.714;23.310;2023-04-04T11:51:47;94221.28;;;2.86;85.36
20105;BME280;10212;42.714;23.310;2023-04-04T12:01:49;94227.78;;;2.97;83.78
20105;BME280;10212;42.714;23.310;2023-04-04T12:11:50;94212.25;;;2.51;85.85
20105;BME280;10212;42.714;23.310;2023-04-04T12:21:51;94233.28;;;2.55;84.58
20105;BME280;10212;42.714;23.310;2023-04-04T12:31:53;94235.94;;;2.47;85.75
20105;BME280;10212;42.714;23.310;2023-04-04T12:51:56;94246.13;;;2.40;85.65
20105;BME280;10212;42.714;23.310;2023-04-04T13:02:00;94253.19;;;2.14;86.52
20105;BME280;10212;42.714;23.310;2023-04-04T13:12:02;94266.41;;;2.11;88.54
20105;BME280;10212;42.714;23.310;2023-04-04T13:22:06;94276.13;;;2.01;88.25
20105;BME280;10212;42.714;23.310;2023-04-04T13:32:07;94284.75;;;2.08;91.21
20105;BME280;10212;42.714;23.310;2023-04-04T13:42:08;94309.47;;;1.86;90.32
20105;BME280;10212;42.714;23.310;2023-04-04T13:52:08;94328.41;;;1.28;93.38
20105;BME280;10212;42.714;23.310;2023-04-04T14:02:09;94335.84;;;0.64;96.98
20105;BME280;10212;42.714;23.310;2023-04-04T14:12:10;94351.06;;;0.57;98.88
20105;BME280;10212;42.714;23.310;2023-04-04T14:22:10;94368.06;;;0.50;100.00
20105;BME280;10212;42.714;23.310;2023-04-04T14:32:11;94373.38;;;0.65;100.00
20105;BME280;10212;42.714;23.310;2023-04-04T14:42:12;94387.47;;;0.61;99.76
20105;BME280;10212;42.714;23.310;2023-04-04T14:52:13;94396.97;;;0.77;96.72
20105;BME280;10212;42.714;23.310;2023-04-04T15:02:14;94407.41;;;0.84;96.23
20105;BME280;10212;42.714;23.310;2023-04-04T15:12:15;94411.88;;;0.74;94.53
20105;BME280;10212;42.714;23.310;2023-04-04T15:22:15;94427.94;;;0.76;94.11
20105;BME280;10212;42.714;23.310;2023-04-04T15:32:17;94430.94;;;0.54;93.11
20105;BME280;10212;42.714;23.310;2023-04-04T15:42:18;94439.72;;;0.52;92.30
20105;BME280;10212;42.714;23.310;2023-04-04T15:52:18;94440.75;;;0.76;93.02
20105;BME280;10212;42.714;23.310;2023-04-04T16:02:19;94458.88;;;0.74;92.10
20105;BME280;10212;42.714;23.310;2023-04-04T16:12:19;94471.50;;;0.59;92.82
20105;BME280;10212;42.714;23.310;2023-04-04T16:22:20;94484.09;;;0.35;92.87
20105;BME280;10212;42.714;23.310;2023-04-04T16:32:20;94492.22;;;0.22;93.41
20105;BME280;10212;42.714;23.310;2023-04-04T16:42:21;94499.06;;;0.14;94.12
20105;BME280;10212;42.714;23.310;2023-04-04T16:52:21;94505.91;;;0.05;92.95
20105;BME280;10212;42.714;23.310;2023-04-04T17:02:21;94511.03;;;-0.22;92.35
20105;BME280;10212;42.714;23.310;2023-04-04T17:12:22;94535.06;;;-0.41;93.82
20105;BME280;10212;42.714;23.310;2023-04-04T17:22:22;94551.03;;;-0.47;94.11
20105;BME280;10212;42.714;23.310;2023-04-04T17:32:23;94562.97;;;-0.38;93.80
20105;BME280;10212;42.714;23.310;2023-04-04T17:42:25;94586.88;;;-0.29;92.37
20105;BME280;10212;42.714;23.310;2023-04-04T17:52:25;94602.06;;;-0.36;91.94
20105;BME280;10212;42.714;23.310;2023-04-04T18:02:26;94598.81;;;-0.38;92.36
20105;BME280;10212;42.714;23.310;2023-04-04T18:12:26;94619.44;;;-0.58;92.49
20105;BME280;10212;42.714;23.310;2023-04-04T18:22:31;94623.31;;;-0.72;93.74
20105;BME280;10212;42.714;23.310;2023-04-04T18:32:32;94621.41;;;-0.70;94.04
20105;BME280;10212;42.714;23.310;2023-04-04T18:42:33;94635.59;;;-0.76;94.91
20105;BME280;10212;42.714;23.310;2023-04-04T18:52:33;94648.75;;;-0.89;94.47
20105;BME280;10212;42.714;23.310;2023-04-04T19:02:35;94653.00;;;-0.79;94.54
20105;BME280;10212;42.714;23.310;2023-04-04T19:12:37;94660.81;;;-0.81;95.26
20105;BME280;10212;42.714;23.310;2023-04-04T19:22:38;94669.59;;;-0.83;94.68
20105;BME280;10212;42.714;23.310;2023-04-04T19:32:39;94667.44;;;-0.88;94.99
20105;BME280;10212;42.714;23.310;2023-04-04T19:42:40;94681.88;;;-0.87;93.80
20105;BME280;10212;42.714;23.310;2023-04-04T19:52:41;94663.16;;;-0.88;93.81
20105;BME280;10212;42.714;23.310;2023-04-04T20:02:48;94680.22;;;-0.78;93.78
20105;BME280;10212;42.714;23.310;2023-04-04T20:12:50;94677.31;;;-0.93;94.17
20105;BME280;10212;42.714;23.310;2023-04-04T20:22:50;94670.44;;;-0.93;94.02
20105;BME280;10212;42.714;23.310;2023-04-04T20:32:51;94685.94;;;-0.94;95.35
20105;BME280;10212;42.714;23.310;2023-04-04T20:42:52;94684.38;;;-1.05;95.77
20105;BME280;10212;42.714;23.310;2023-04-04T20:53:00;94682.44;;;-0.93;95.87
20105;BME280;10212;42.714;23.310;2023-04-04T21:03:06;94690.69;;;-1.00;96.08
20105;BME280;10212;42.714;23.310;2023-04-04T21:13:07;94691.38;;;-1.07;95.70
20105;BME280;10212;42.714;23.310;2023-04-04T21:23:18;94696.63;;;-1.09;96.45
20105;BME280;10212;42.714;23.310;2023-04-04T21:33:22;94705.91;;;-0.98;96.31
20105;BME280;10212;42.714;23.310;2023-04-04T21:43:23;94707.53;;;-1.07;96.53
20105;BME280;10212;42.714;23.310;2023-04-04T21:53:23;94706.25;;;-1.21;97.22
20105;BME280;10212;42.714;23.310;2023-04-04T22:03:24;94700.84;;;-1.18;96.89
20105;BME280;10212;42.714;23.310;2023-04-04T22:13:25;94709.75;;;-1.22;97.80
20105;BME280;10212;42.714;23.310;2023-04-04T22:23:41;94709.56;;;-1.11;98.03
20105;BME280;10212;42.714;23.310;2023-04-04T22:33:43;94718.59;;;-1.16;98.00
20105;BME280;10212;42.714;23.310;2023-04-04T22:43:44;94713.09;;;-1.22;98.18
20105;BME280;10212;42.714;23.310;2023-04-04T22:53:45;94714.59;;;-1.19;98.21
20105;BME280;10212;42.714;23.310;2023-04-04T23:03:45;94729.94;;;-1.19;98.58
20105;BME280;10212;42.714;23.310;2023-04-04T23:13:45;94724.44;;;-1.24;98.52
20105;BME280;10212;42.714;23.310;2023-04-04T23:23:46;94723.22;;;-1.30;99.51
20105;BME280;10212;42.714;23.310;2023-04-04T23:33:46;94729.13;;;-1.19;99.54
20105;BME280;10212;42.714;23.310;2023-04-04T23:43:47;94724.44;;;-1.24;100.00
20105;BME280;10212;42.714;23.310;2023-04-04T23:53:47;94718.78;;;-1.28;99.02
